Time;durP1;ratioP1;P1;durP2;ratioP2;P2;SDS_P1;SDS_P2;PMS_P1;PMS_P2;Temp;Humidity;BMP_temperature;BMP_pressure;BME280_temperature;BME280_humidity;BME280_pressure;Samples;Min_cycle;Max_cycle;Signal;HPM_P1;HPM_P2
2023/01/05 00:00:31;;;;;;;57.60;2.47;;;;;;;;;;5074094;28;20443;-70
2023/01/05 00:02:58;;;;;;;57.27;2.70;;;;;;;;;;5074292;28;20532;-70
2023/01/05 00:05:25;;;;;;;57.40;2.50;;;;;;;;;;5074463;28;20466;-70
2023/01/05 00:07:52;;;;;;;57.43;2.50;;;;;;;;;;5074305;28;20447;-70
2023/01/05 00:24:12;;;;;;;57.40;2.57;;;;;;;;;;5074143;28;20476;-70
2023/01/05 00:26:40;;;;;;;57.67;2.60;;;;;;;;;;5073843;28;20447;-70
2023/01/05 00:29:07;;;;;;;57.47;2.67;;;;;;;;;;5073078;28;20955;-70
2023/01/05 00:31:34;;;;;;;57.30;2.47;;;;;;;;;;5073943;28;20467;-70
2023/01/05 00:34:01;;;;;;;58.20;2.90;;;;;;;;;;5074028;28;20440;-70
2023/01/05 00:36:28;;;;;;;57.43;2.60;;;;;;;;;;5073875;28;20956;-70
2023/01/05 00:38:56;;;;;;;57.37;2.63;;;;;;;;;;5073046;28;20439;-70
2023/01/05 00:41:23;;;;;;;57.47;2.50;;;;;;;;;;5073473;28;20463;-70
2023/01/05 00:43:51;;;;;;;57.20;2.30;;;;;;;;;;5073609;28;20826;-70
2023/01/05 00:46:18;;;;;;;57.30;2.27;;;;;;;;;;5073615;28;21015;-70
2023/01/05 00:48:45;;;;;;;57.17;2.70;;;;;;;;;;5073255;28;20453;-70
2023/01/05 00:51:12;;;;;;;57.80;2.47;;;;;;;;;;5073310;28;20473;-70
2023/01/05 00:53:39;;;;;;;57.00;2.40;;;;;;;;;;5073543;28;20495;-70
2023/01/05 00:56:07;;;;;;;57.47;2.80;;;;;;;;;;5073213;28;20489;-70
2023/01/05 00:58:34;;;;;;;57.97;2.33;;;;;;;;;;5072790;28;20457;-70
2023/01/05 01:01:02;;;;;;;57.40;2.40;;;;;;;;;;5073291;28;20874;-70
2023/01/05 01:03:30;;;;;;;58.30;2.33;;;;;;;;;;5073132;28;20439;-70
2023/01/05 01:05:57;;;;;;;57.30;2.20;;;;;;;;;;5073148;28;20943;-70
2023/01/05 01:08:24;;;;;;;57.87;2.60;;;;;;;;;;5073012;28;20951;-70
2023/01/05 01:10:51;;;;;;;57.30;2.40;;;;;;;;;;5072511;28;20443;-70
2023/01/05 01:13:18;;;;;;;57.37;2.40;;;;;;;;;;5073006;28;20943;-70
2023/01/05 01:15:45;;;;;;;58.00;2.40;;;;;;;;;;5073049;28;20491;-70
2023/01/05 01:18:14;;;;;;;57.17;2.40;;;;;;;;;;5072832;28;20547;-70
2023/01/05 01:20:41;;;;;;;57.30;2.37;;;;;;;;;;5072280;28;20454;-70
2023/01/05 01:23:08;;;;;;;57.57;2.40;;;;;;;;;;5072565;28;20478;-70
2023/01/05 01:25:35;;;;;;;57.40;2.30;;;;;;;;;;5072707;28;20451;-70
2023/01/05 01:28:02;;;;;;;56.93;2.40;;;;;;;;;;5072841;28;20447;-70
2023/01/05 01:30:29;;;;;;;57.43;2.50;;;;;;;;;;5071940;28;20452;-70
2023/01/05 01:32:56;;;;;;;57.20;2.40;;;;;;;;;;5072611;28;20467;-70
2023/01/05 01:35:25;;;;;;;58.23;2.50;;;;;;;;;;5072421;28;20456;-70
2023/01/05 01:37:52;;;;;;;57.37;2.57;;;;;;;;;;5072454;28;20451;-70
2023/01/05 01:40:19;;;;;;;57.97;2.67;;;;;;;;;;5071857;28;20461;-70
2023/01/05 01:42:46;;;;;;;57.30;2.40;;;;;;;;;;5072543;28;20466;-70
2023/01/05 01:45:18;;;;;;;57.17;2.30;;;;;;;;;;5072540;28;20443;-70
2023/01/05 01:47:48;;;;;;;58.27;2.50;;;;;;;;;;5072809;28;20447;-70
2023/01/05 01:50:16;;;;;;;56.77;2.50;;;;;;;;;;5071394;28;20885;-70
2023/01/05 01:52:46;;;;;;;57.67;2.20;;;;;;;;;;5072264;28;20477;-70
2023/01/05 01:55:14;;;;;;;57.37;2.40;;;;;;;;;;5072317;28;20447;-70
2023/01/05 01:57:42;;;;;;;56.73;2.23;;;;;;;;;;5072157;28;20486;-70
2023/01/05 02:00:13;;;;;;;57.17;2.50;;;;;;;;;;5071392;28;20944;-70
2023/01/05 02:02:40;;;;;;;57.57;2.37;;;;;;;;;;5072117;28;20512;-70
2023/01/05 02:05:09;;;;;;;57.10;2.40;;;;;;;;;;5072159;28;20474;-70
2023/01/05 02:07:38;;;;;;;57.20;2.33;;;;;;;;;;5072087;28;20449;-70
2023/01/05 02:10:07;;;;;;;57.23;2.40;;;;;;;;;;5071231;28;20448;-70
2023/01/05 02:12:38;;;;;;;56.90;2.40;;;;;;;;;;5071549;28;20474;-70
2023/01/05 02:15:11;;;;;;;57.13;2.10;;;;;;;;;;5072033;28;20874;-70
2023/01/05 02:17:44;;;;;;;57.47;2.50;;;;;;;;;;5072166;28;20483;-70
2023/01/05 02:20:33;;;;;;;57.37;2.27;;;;;;;;;;5071194;28;20448;-70
2023/01/05 02:23:11;;;;;;;57.60;2.40;;;;;;;;;;5071993;28;20475;-70
2023/01/05 02:25:49;;;;;;;57.67;2.30;;;;;;;;;;5071871;28;20467;-70
2023/01/05 02:28:25;;;;;;;57.30;2.30;;;;;;;;;;5071784;28;20452;-70
2023/01/05 02:31:04;;;;;;;57.20;2.33;;;;;;;;;;5071349;28;20442;-70
2023/01/05 02:33:42;;;;;;;57.70;2.53;;;;;;;;;;5071874;28;20455;-70
2023/01/05 02:36:13;;;;;;;57.30;2.27;;;;;;;;;;5071637;28;20487;-70
2023/01/05 02:38:45;;;;;;;58.37;2.23;;;;;;;;;;5071215;28;20464;-70
2023/01/05 02:41:17;;;;;;;57.20;2.40;;;;;;;;;;5071822;28;20463;-70
2023/01/05 02:43:45;;;;;;;57.47;2.33;;;;;;;;;;5071818;28;20451;-70
2023/01/05 02:46:13;;;;;;;57.03;2.00;;;;;;;;;;5071803;28;20512;-70
2023/01/05 02:48:41;;;;;;;57.37;2.50;;;;;;;;;;5067352;28;20453;-70
2023/01/05 02:51:11;;;;;;;57.00;2.40;;;;;;;;;;5071400;28;20979;-70
2023/01/05 02:53:40;;;;;;;57.30;2.30;;;;;;;;;;5071704;28;20443;-70
2023/01/05 02:56:10;;;;;;;57.13;2.40;;;;;;;;;;5071630;28;20475;-70
2023/01/05 02:58:39;;;;;;;57.27;2.40;;;;;;;;;;5070806;28;20443;-70
2023/01/05 03:01:08;;;;;;;57.27;2.50;;;;;;;;;;5071343;28;20472;-70
2023/01/05 03:03:38;;;;;;;57.17;2.40;;;;;;;;;;5071720;28;20534;-70
2023/01/05 03:06:08;;;;;;;57.50;2.40;;;;;;;;;;5071668;28;20443;-70
2023/01/05 03:08:38;;;;;;;57.47;2.60;;;;;;;;;;5070772;28;20488;-70
2023/01/05 03:13:54;;;;;;;57.37;2.33;;;;;;;;;;5071197;28;20634;-70
2023/01/05 03:16:24;;;;;;;57.40;2.60;;;;;;;;;;5071359;28;20471;-70
2023/01/05 03:35:33;;;;;;;57.23;2.30;;;;;;;;;;5074998;28;20435;-70
2023/01/05 03:38:02;;;;;;;57.27;2.40;;;;;;;;;;5074896;28;20497;-70
2023/01/05 03:40:31;;;;;;;57.57;2.57;;;;;;;;;;5074143;28;20453;-70
2023/01/05 03:42:58;;;;;;;57.50;2.50;;;;;;;;;;5075158;28;21003;-70
2023/01/05 03:45:27;;;;;;;57.47;2.50;;;;;;;;;;5074998;28;20457;-70
2023/01/05 03:47:54;;;;;;;57.47;2.33;;;;;;;;;;5074654;28;20449;-70
2023/01/05 03:50:22;;;;;;;57.30;2.30;;;;;;;;;;5074061;28;20823;-70
2023/01/05 03:52:50;;;;;;;57.90;2.80;;;;;;;;;;5074599;28;20471;-70
2023/01/05 03:55:17;;;;;;;57.07;2.37;;;;;;;;;;5074537;28;20474;-70
2023/01/05 03:57:44;;;;;;;59.87;2.50;;;;;;;;;;5074362;28;20489;-70
2023/01/05 04:00:12;;;;;;;57.50;2.60;;;;;;;;;;5073877;28;20459;-70
2023/01/05 04:02:39;;;;;;;59.40;2.50;;;;;;;;;;5074349;28;20471;-70
2023/01/05 04:05:07;;;;;;;57.70;2.50;;;;;;;;;;5074335;28;20963;-70
2023/01/05 04:07:34;;;;;;;57.17;2.37;;;;;;;;;;5074398;28;20850;-70
2023/01/05 04:10:02;;;;;;;57.37;2.57;;;;;;;;;;5073272;28;20449;-70
2023/01/05 04:12:30;;;;;;;57.30;2.40;;;;;;;;;;5074390;28;20463;-70
2023/01/05 04:14:57;;;;;;;57.40;2.40;;;;;;;;;;5074152;28;20447;-70
2023/01/05 04:17:24;;;;;;;57.27;2.40;;;;;;;;;;5074180;28;20483;-70
2023/01/05 04:19:51;;;;;;;59.23;2.50;;;;;;;;;;5073296;28;20447;-70
2023/01/05 04:22:18;;;;;;;57.60;2.20;;;;;;;;;;5073995;28;20565;-70
2023/01/05 04:24:45;;;;;;;57.47;2.33;;;;;;;;;;5073914;28;20458;-70
2023/01/05 04:27:14;;;;;;;57.33;2.57;;;;;;;;;;5074274;28;20818;-70
2023/01/05 04:29:41;;;;;;;57.60;2.60;;;;;;;;;;5073150;28;20462;-70
2023/01/05 04:32:08;;;;;;;57.20;2.20;;;;;;;;;;5073892;28;20493;-70
2023/01/05 04:34:35;;;;;;;57.30;2.40;;;;;;;;;;5073921;28;20450;-70
2023/01/05 04:37:02;;;;;;;59.67;2.60;;;;;;;;;;5073171;28;20851;-70
2023/01/05 04:39:29;;;;;;;58.63;2.57;;;;;;;;;;5073222;28;20557;-70
2023/01/05 04:41:56;;;;;;;57.30;2.30;;;;;;;;;;5073581;28;20475;-70
2023/01/05 04:44:24;;;;;;;57.60;2.70;;;;;;;;;;5073789;28;20447;-70
2023/01/05 04:46:52;;;;;;;57.27;2.13;;;;;;;;;;5073542;28;20444;-70
2023/01/05 04:49:19;;;;;;;57.60;2.50;;;;;;;;;;5072843;28;20796;-70
2023/01/05 04:51:46;;;;;;;57.33;2.40;;;;;;;;;;5073265;28;20474;-70
2023/01/05 04:54:13;;;;;;;57.77;2.40;;;;;;;;;;5073586;28;20452;-70
2023/01/05 04:56:40;;;;;;;57.70;2.40;;;;;;;;;;5073312;28;20479;-70
2023/01/05 04:59:08;;;;;;;58.53;2.63;;;;;;;;;;5072712;28;20461;-70
2023/01/05 05:01:37;;;;;;;57.17;2.40;;;;;;;;;;5073301;28;20471;-70
2023/01/05 05:04:04;;;;;;;57.10;2.23;;;;;;;;;;5073223;28;20450;-70
2023/01/05 05:06:31;;;;;;;57.30;2.53;;;;;;;;;;5073144;28;20444;-71
2023/01/05 05:08:58;;;;;;;56.93;2.27;;;;;;;;;;5072609;28;20837;-71
2023/01/05 05:11:25;;;;;;;57.40;2.50;;;;;;;;;;5073206;28;20463;-70
2023/01/05 05:13:52;;;;;;;57.50;2.60;;;;;;;;;;5073067;28;20455;-70
2023/01/05 05:16:19;;;;;;;57.50;2.50;;;;;;;;;;5072974;28;20944;-69
2023/01/05 05:18:48;;;;;;;57.40;2.40;;;;;;;;;;5072066;28;20483;-71
2023/01/05 05:21:15;;;;;;;58.07;2.37;;;;;;;;;;5072752;28;20998;-69
2023/01/05 05:23:42;;;;;;;57.30;2.50;;;;;;;;;;5073029;28;20451;-69
2023/01/05 05:26:09;;;;;;;56.97;2.40;;;;;;;;;;5072697;28;20465;-69
2023/01/05 05:28:36;;;;;;;57.20;2.30;;;;;;;;;;5072064;28;20444;-69
2023/01/05 05:31:03;;;;;;;57.30;2.40;;;;;;;;;;5072626;28;20453;-68
2023/01/05 05:33:30;;;;;;;57.47;2.53;;;;;;;;;;5072623;28;20447;-68
2023/01/05 05:35:59;;;;;;;57.60;2.40;;;;;;;;;;5072752;28;20454;-68
2023/01/05 05:38:26;;;;;;;57.40;2.50;;;;;;;;;;5072495;28;20514;-68
2023/01/05 05:40:53;;;;;;;57.47;2.50;;;;;;;;;;5071954;28;20451;-68
2023/01/05 05:43:20;;;;;;;57.17;2.33;;;;;;;;;;5072340;28;20455;-68
2023/01/05 05:45:47;;;;;;;57.27;2.53;;;;;;;;;;5072326;28;20458;-68
2023/01/05 05:48:14;;;;;;;56.90;2.33;;;;;;;;;;5071518;28;20446;-68
2023/01/05 05:50:41;;;;;;;57.20;2.27;;;;;;;;;;5071851;28;20452;-69
2023/01/05 05:53:10;;;;;;;60.77;2.53;;;;;;;;;;5072370;28;20474;-68
2023/01/05 05:55:37;;;;;;;57.27;2.53;;;;;;;;;;5072262;28;20462;-68
2023/01/05 05:58:04;;;;;;;57.50;2.53;;;;;;;;;;5072146;28;20581;-69
2023/01/05 06:00:31;;;;;;;59.80;2.70;;;;;;;;;;5071320;28;20451;-69
2023/01/05 06:02:58;;;;;;;60.43;2.70;;;;;;;;;;5072170;28;20467;-69
2023/01/05 06:05:25;;;;;;;57.67;2.50;;;;;;;;;;5072227;28;20455;-69
2023/01/05 06:07:52;;;;;;;57.77;2.70;;;;;;;;;;5072138;28;20806;-69
2023/01/05 06:10:21;;;;;;;57.67;2.50;;;;;;;;;;5071311;28;20447;-69
2023/01/05 06:12:48;;;;;;;60.03;3.67;;;;;;;;;;5071831;28;20485;-69
2023/01/05 06:15:15;;;;;;;60.57;3.40;;;;;;;;;;5072224;28;20464;-69
2023/01/05 06:17:42;;;;;;;61.40;3.53;;;;;;;;;;5072077;28;20487;-69
2023/01/05 06:20:10;;;;;;;59.60;2.70;;;;;;;;;;5071072;28;20948;-69
2023/01/05 06:22:37;;;;;;;60.33;3.63;;;;;;;;;;5071941;28;20851;-69
2023/01/05 06:25:04;;;;;;;58.07;3.40;;;;;;;;;;5071741;28;20455;-69
2023/01/05 06:27:32;;;;;;;58.57;2.70;;;;;;;;;;5071693;28;20443;-69
2023/01/05 06:30:00;;;;;;;59.40;3.00;;;;;;;;;;5071254;28;20447;-69
2023/01/05 06:32:27;;;;;;;61.60;3.37;;;;;;;;;;5071792;28;20476;-70
2023/01/05 06:34:54;;;;;;;62.63;3.70;;;;;;;;;;5071967;28;20450;-70
2023/01/05 06:37:21;;;;;;;59.60;3.00;;;;;;;;;;5071659;28;20483;-70
2023/01/05 06:39:48;;;;;;;60.57;2.87;;;;;;;;;;5071002;28;20496;-70
2023/01/05 06:42:15;;;;;;;61.90;2.97;;;;;;;;;;5071718;28;20475;-71
2023/01/05 06:44:44;;;;;;;63.77;3.70;;;;;;;;;;5071875;28;20447;-70
2023/01/05 06:47:11;;;;;;;59.60;3.47;;;;;;;;;;5071705;28;20947;-70
2023/01/05 06:49:38;;;;;;;60.93;3.20;;;;;;;;;;5070937;28;20458;-69
2023/01/05 06:52:05;;;;;;;62.37;3.90;;;;;;;;;;5071288;28;20467;-69
2023/01/05 06:54:32;;;;;;;58.47;3.30;;;;;;;;;;5071427;28;20447;-69
2023/01/05 06:56:59;;;;;;;59.37;3.00;;;;;;;;;;5071438;28;20454;-69
2023/01/05 06:59:27;;;;;;;62.00;3.00;;;;;;;;;;5072645;28;20450;-69
2023/01/05 07:01:55;;;;;;;60.80;3.17;;;;;;;;;;5075411;28;20921;-69
2023/01/05 07:04:22;;;;;;;59.90;3.60;;;;;;;;;;5075483;28;20443;-69
2023/01/05 07:06:49;;;;;;;59.83;3.07;;;;;;;;;;5075988;28;20451;-69
2023/01/05 07:09:16;;;;;;;60.57;2.83;;;;;;;;;;5075001;28;20448;-69
2023/01/05 07:11:43;;;;;;;61.10;3.70;;;;;;;;;;5075451;28;20467;-69
2023/01/05 07:14:11;;;;;;;58.20;3.13;;;;;;;;;;5075527;28;20454;-69
2023/01/05 07:16:38;;;;;;;63.03;3.60;;;;;;;;;;5075045;28;20455;-69
2023/01/05 07:19:06;;;;;;;60.80;3.70;;;;;;;;;;5074466;28;20487;-69
2023/01/05 07:21:33;;;;;;;60.20;3.30;;;;;;;;;;5075015;28;20475;-69
2023/01/05 07:24:00;;;;;;;60.53;3.20;;;;;;;;;;5075363;28;20819;-69
2023/01/05 07:26:27;;;;;;;63.20;3.40;;;;;;;;;;5074943;28;20459;-69
2023/01/05 07:28:54;;;;;;;65.90;6.17;;;;;;;;;;5074458;28;20443;-69
2023/01/05 07:31:22;;;;;;;61.20;3.87;;;;;;;;;;5074817;28;20478;-69
2023/01/05 07:33:49;;;;;;;63.90;5.50;;;;;;;;;;5074950;28;20477;-69
2023/01/05 07:36:17;;;;;;;61.00;4.30;;;;;;;;;;5074775;28;20490;-69
2023/01/05 07:38:44;;;;;;;62.60;3.60;;;;;;;;;;5074256;28;20482;-69
2023/01/05 07:41:11;;;;;;;61.77;4.30;;;;;;;;;;5074990;28;20474;-69
2023/01/05 07:43:38;;;;;;;63.43;3.23;;;;;;;;;;5074949;28;20447;-69
2023/01/05 07:46:06;;;;;;;61.70;4.30;;;;;;;;;;5074791;28;20447;-69
2023/01/05 07:48:33;;;;;;;61.20;3.17;;;;;;;;;;5074657;28;20439;-69
2023/01/05 07:51:01;;;;;;;66.03;3.83;;;;;;;;;;5074405;28;20460;-69
2023/01/05 07:53:30;;;;;;;62.13;3.80;;;;;;;;;;5074520;28;20458;-69
2023/01/05 07:55:57;;;;;;;59.23;4.00;;;;;;;;;;5074702;28;20447;-69
2023/01/05 07:58:25;;;;;;;62.43;4.40;;;;;;;;;;5074464;28;20529;-69
2023/01/05 08:00:52;;;;;;;62.80;4.50;;;;;;;;;;5073645;28;20974;-69
2023/01/05 08:03:19;;;;;;;61.23;4.43;;;;;;;;;;5074361;28;20448;-70
2023/01/05 08:05:46;;;;;;;63.43;3.97;;;;;;;;;;5074610;28;20483;-70
2023/01/05 08:08:14;;;;;;;62.90;4.10;;;;;;;;;;5074440;28;20517;-70
2023/01/05 08:10:43;;;;;;;62.70;4.13;;;;;;;;;;5072764;28;20964;-70
2023/01/05 08:15:55;;;;;;;66.57;4.30;;;;;;;;;;5074192;28;20419;-70
2023/01/05 08:18:23;;;;;;;60.20;3.70;;;;;;;;;;5073972;28;21057;-70
2023/01/05 08:20:51;;;;;;;59.37;3.30;;;;;;;;;;5073520;28;20447;-70
2023/01/05 08:23:18;;;;;;;62.40;3.80;;;;;;;;;;5074019;28;20932;-70
2023/01/05 08:25:47;;;;;;;62.90;3.23;;;;;;;;;;5073909;28;20963;-70
2023/01/05 08:28:14;;;;;;;59.30;3.57;;;;;;;;;;5064604;28;20449;-70
2023/01/05 08:30:41;;;;;;;59.80;3.30;;;;;;;;;;5053119;28;20467;-70
2023/01/05 08:33:08;;;;;;;64.00;4.37;;;;;;;;;;5053968;28;20468;-70
2023/01/05 08:35:35;;;;;;;60.33;3.23;;;;;;;;;;5053968;28;20452;-70
2023/01/05 08:38:02;;;;;;;64.10;3.70;;;;;;;;;;5053785;28;20856;-70
2023/01/05 08:40:30;;;;;;;61.90;3.30;;;;;;;;;;5053131;28;20448;-70
2023/01/05 08:42:59;;;;;;;61.97;3.83;;;;;;;;;;5053462;28;20483;-70
2023/01/05 08:45:26;;;;;;;60.90;3.40;;;;;;;;;;5053844;28;20444;-70
2023/01/05 08:47:53;;;;;;;62.27;3.77;;;;;;;;;;5053851;28;20444;-70
2023/01/05 08:50:20;;;;;;;59.10;3.07;;;;;;;;;;5052976;28;20449;-70
2023/01/05 08:52:47;;;;;;;60.70;3.50;;;;;;;;;;5053553;28;20852;-70
2023/01/05 08:55:14;;;;;;;61.60;3.80;;;;;;;;;;5053405;28;20456;-70
2023/01/05 08:57:41;;;;;;;61.40;3.00;;;;;;;;;;5053356;28;20447;-70
2023/01/05 09:00:11;;;;;;;62.40;3.93;;;;;;;;;;5052617;28;20980;-70
2023/01/05 09:02:38;;;;;;;60.80;3.50;;;;;;;;;;5053228;28;20473;-70
2023/01/05 09:05:05;;;;;;;62.00;3.60;;;;;;;;;;5053443;28;20452;-70
2023/01/05 09:07:32;;;;;;;60.37;3.10;;;;;;;;;;5053299;28;20447;-70
2023/01/05 09:10:00;;;;;;;62.30;4.20;;;;;;;;;;5052365;28;20448;-70
2023/01/05 09:12:27;;;;;;;61.20;3.23;;;;;;;;;;5053074;28;20989;-70
2023/01/05 09:14:54;;;;;;;61.87;3.60;;;;;;;;;;5053268;28;20444;-70
2023/01/05 09:17:22;;;;;;;59.27;3.20;;;;;;;;;;5053322;28;20845;-70
2023/01/05 09:19:49;;;;;;;62.07;3.47;;;;;;;;;;5052156;28;20562;-70
2023/01/05 09:22:16;;;;;;;60.53;3.33;;;;;;;;;;5052929;28;20506;-70
2023/01/05 09:24:44;;;;;;;60.00;3.60;;;;;;;;;;5052700;28;20456;-70
2023/01/05 09:27:11;;;;;;;61.27;3.60;;;;;;;;;;5053104;28;20455;-70
2023/01/05 09:29:38;;;;;;;60.37;3.80;;;;;;;;;;5052161;28;20455;-70
2023/01/05 09:32:06;;;;;;;60.67;2.93;;;;;;;;;;5052717;28;20472;-70
2023/01/05 09:34:34;;;;;;;62.10;3.60;;;;;;;;;;5052817;28;20514;-70
2023/01/05 09:37:01;;;;;;;61.03;3.20;;;;;;;;;;5052696;28;20448;-70
2023/01/05 09:39:29;;;;;;;60.70;3.43;;;;;;;;;;5052055;28;20653;-70
2023/01/05 09:41:57;;;;;;;66.93;4.33;;;;;;;;;;5052791;28;20810;-70
2023/01/05 09:44:29;;;;;;;61.60;4.10;;;;;;;;;;5052690;28;20448;-70
2023/01/05 09:46:56;;;;;;;66.20;3.57;;;;;;;;;;5052647;28;20478;-70
2023/01/05 09:49:25;;;;;;;65.47;3.97;;;;;;;;;;5051788;28;20447;-70
2023/01/05 09:51:55;;;;;;;61.47;4.27;;;;;;;;;;5052304;28;20821;-70
2023/01/05 09:54:23;;;;;;;63.70;3.93;;;;;;;;;;5052579;28;20448;-70
2023/01/05 09:56:50;;;;;;;63.77;4.47;;;;;;;;;;5052506;28;20448;-70
2023/01/05 09:59:19;;;;;;;67.97;4.70;;;;;;;;;;5051603;28;20481;-70
2023/01/05 10:01:48;;;;;;;62.53;3.70;;;;;;;;;;5052031;28;20828;-70
2023/01/05 10:04:16;;;;;;;65.27;3.80;;;;;;;;;;5052117;28;20452;-70
2023/01/05 10:06:44;;;;;;;66.53;3.80;;;;;;;;;;5052358;28;20801;-70
2023/01/05 10:09:17;;;;;;;66.90;4.00;;;;;;;;;;5051343;28;20452;-70
2023/01/05 10:14:35;;;;;;;61.90;4.53;;;;;;;;;;5051952;28;20415;-70
2023/01/05 10:17:03;;;;;;;62.17;4.03;;;;;;;;;;5052308;28;20444;-70
2023/01/05 10:19:30;;;;;;;63.63;4.20;;;;;;;;;;5051342;28;20871;-70
2023/01/05 10:22:00;;;;;;;67.17;4.10;;;;;;;;;;5051995;28;20470;-70
2023/01/05 10:24:33;;;;;;;61.70;3.80;;;;;;;;;;5051838;28;20445;-70
2023/01/05 10:27:05;;;;;;;67.03;4.50;;;;;;;;;;5051809;28;20506;-70
2023/01/05 10:29:37;;;;;;;65.70;4.30;;;;;;;;;;5051349;28;20456;-70
2023/01/05 10:32:08;;;;;;;69.50;4.83;;;;;;;;;;5052025;28;20476;-70
2023/01/05 10:34:46;;;;;;;68.73;4.80;;;;;;;;;;5051485;28;20456;-70
2023/01/05 10:37:23;;;;;;;69.83;4.23;;;;;;;;;;5051791;28;20466;-70
2023/01/05 10:40:00;;;;;;;65.40;4.53;;;;;;;;;;5050849;28;20511;-70
2023/01/05 10:42:33;;;;;;;67.27;4.40;;;;;;;;;;5051729;28;20467;-70
2023/01/05 10:45:02;;;;;;;63.40;4.70;;;;;;;;;;5051771;28;20471;-70
2023/01/05 10:47:30;;;;;;;63.83;3.97;;;;;;;;;;5051797;28;20836;-70
2023/01/05 10:50:00;;;;;;;67.87;4.37;;;;;;;;;;5050725;28;20441;-70
2023/01/05 10:52:27;;;;;;;69.40;4.37;;;;;;;;;;5051473;28;20507;-70
2023/01/05 10:54:56;;;;;;;63.83;4.17;;;;;;;;;;5051572;28;20452;-70
2023/01/05 10:57:41;;;;;;;66.60;4.97;;;;;;;;;;5051704;28;20452;-70
2023/01/05 11:00:10;;;;;;;61.70;4.50;;;;;;;;;;5050822;28;21051;-70
2023/01/05 11:02:39;;;;;;;63.83;4.43;;;;;;;;;;5051350;28;20472;-70
2023/01/05 11:05:15;;;;;;;65.00;4.90;;;;;;;;;;5051676;28;20551;-70
2023/01/05 11:07:47;;;;;;;68.23;5.57;;;;;;;;;;5051614;28;20455;-70
2023/01/05 11:10:21;;;;;;;66.00;4.67;;;;;;;;;;5050826;28;20531;-70
2023/01/05 11:12:52;;;;;;;64.97;4.23;;;;;;;;;;5051503;28;20478;-70
2023/01/05 11:15:19;;;;;;;61.40;3.43;;;;;;;;;;5051681;28;20448;-70
2023/01/05 11:17:47;;;;;;;69.60;4.90;;;;;;;;;;5051577;28;20455;-70
2023/01/05 11:20:17;;;;;;;64.67;4.53;;;;;;;;;;5050695;28;20864;-70
2023/01/05 11:22:46;;;;;;;70.23;3.80;;;;;;;;;;5051526;28;20851;-70
2023/01/05 11:25:15;;;;;;;68.70;4.83;;;;;;;;;;5051208;28;20883;-70
2023/01/05 11:27:42;;;;;;;64.70;4.63;;;;;;;;;;5051478;28;20450;-70
2023/01/05 11:30:23;;;;;;;69.97;5.13;;;;;;;;;;5050673;28;20454;-70
2023/01/05 11:32:50;;;;;;;64.07;4.10;;;;;;;;;;5051362;28;20563;-70
2023/01/05 11:35:21;;;;;;;64.60;4.17;;;;;;;;;;5051294;28;20448;-70
2023/01/05 11:37:48;;;;;;;65.10;3.73;;;;;;;;;;5051182;28;20449;-70
2023/01/05 11:40:16;;;;;;;67.70;4.37;;;;;;;;;;5050576;28;20492;-70
2023/01/05 11:42:44;;;;;;;68.97;4.53;;;;;;;;;;5051164;28;20472;-70
2023/01/05 11:45:19;;;;;;;69.30;4.10;;;;;;;;;;5051341;28;20831;-70
2023/01/05 11:47:49;;;;;;;63.33;4.13;;;;;;;;;;5054752;28;21024;-70
2023/01/05 11:50:17;;;;;;;68.20;4.03;;;;;;;;;;5053888;28;20440;-70
2023/01/05 11:52:45;;;;;;;64.07;4.30;;;;;;;;;;5054280;28;20480;-70
2023/01/05 11:55:29;;;;;;;69.63;5.10;;;;;;;;;;5055008;28;20459;-70
2023/01/05 11:57:59;;;;;;;65.53;3.80;;;;;;;;;;5053299;28;20463;-70
2023/01/05 12:00:28;;;;;;;67.50;3.90;;;;;;;;;;5053863;28;20519;-70
2023/01/05 12:03:13;;;;;;;65.60;4.97;;;;;;;;;;5054277;28;20468;-70
2023/01/05 12:05:45;;;;;;;63.00;3.90;;;;;;;;;;5054635;28;20452;-70
2023/01/05 12:08:15;;;;;;;67.63;4.53;;;;;;;;;;5054382;28;20928;-70
2023/01/05 12:10:57;;;;;;;70.37;4.80;;;;;;;;;;5053737;28;20459;-70
2023/01/05 12:13:37;;;;;;;62.20;4.90;;;;;;;;;;5054210;28;20452;-70
2023/01/05 12:16:09;;;;;;;63.10;4.73;;;;;;;;;;5055885;28;20448;-70
2023/01/05 12:18:51;;;;;;;69.50;4.53;;;;;;;;;;5073589;28;20447;-70
2023/01/05 12:21:22;;;;;;;68.07;4.53;;;;;;;;;;5074182;28;20471;-70
2023/01/05 12:24:13;;;;;;;63.17;4.30;;;;;;;;;;5074004;28;20457;-70
2023/01/05 12:26:44;;;;;;;63.47;3.87;;;;;;;;;;5058672;28;20467;-70
2023/01/05 12:29:26;;;;;;;62.47;4.13;;;;;;;;;;5073494;28;20803;-70
2023/01/05 12:32:03;;;;;;;68.07;4.00;;;;;;;;;;5071941;28;20491;-70
2023/01/05 12:34:54;;;;;;;73.90;4.90;;;;;;;;;;5074157;28;20451;-70
2023/01/05 12:37:29;;;;;;;64.00;4.27;;;;;;;;;;5074077;28;20829;-70
2023/01/05 12:40:08;;;;;;;68.83;5.30;;;;;;;;;;5073119;28;20483;-70
2023/01/05 12:42:50;;;;;;;65.17;5.07;;;;;;;;;;5073687;28;20471;-70
2023/01/05 12:45:25;;;;;;;65.63;4.87;;;;;;;;;;5061043;28;20994;-70
2023/01/05 12:47:55;;;;;;;64.33;4.47;;;;;;;;;;5073988;28;20943;-70
2023/01/05 12:50:27;;;;;;;68.23;5.10;;;;;;;;;;5073021;28;20447;-70
2023/01/05 12:52:58;;;;;;;63.87;4.40;;;;;;;;;;5073423;28;20459;-70
2023/01/05 12:55:28;;;;;;;64.93;4.23;;;;;;;;;;5073780;28;20530;-70
2023/01/05 12:58:00;;;;;;;68.23;4.70;;;;;;;;;;5073476;28;20447;-70
2023/01/05 13:00:29;;;;;;;68.97;4.70;;;;;;;;;;5072798;28;20483;-70
2023/01/05 13:02:59;;;;;;;66.90;4.83;;;;;;;;;;5073373;28;20471;-70
2023/01/05 13:05:30;;;;;;;71.47;5.17;;;;;;;;;;5073228;28;20954;-70
2023/01/05 13:07:59;;;;;;;71.20;5.30;;;;;;;;;;5073457;28;20789;-70
2023/01/05 13:10:28;;;;;;;62.10;4.70;;;;;;;;;;5072670;28;20447;-70
2023/01/05 13:12:57;;;;;;;66.10;5.33;;;;;;;;;;5073244;28;20846;-70
2023/01/05 13:15:28;;;;;;;67.60;4.87;;;;;;;;;;5073094;28;20456;-70
2023/01/05 13:17:57;;;;;;;64.87;5.03;;;;;;;;;;5073015;28;20829;-70
2023/01/05 13:20:34;;;;;;;75.00;5.47;;;;;;;;;;5072443;28;20506;-70
2023/01/05 13:23:03;;;;;;;64.47;4.50;;;;;;;;;;5072910;28;20470;-70
2023/01/05 13:25:33;;;;;;;69.80;4.43;;;;;;;;;;5072866;28;20837;-70
2023/01/05 13:28:00;;;;;;;67.43;4.20;;;;;;;;;;5072856;28;20451;-70
2023/01/05 13:30:29;;;;;;;67.50;4.53;;;;;;;;;;5072021;28;20465;-70
2023/01/05 13:33:20;;;;;;;64.40;4.60;;;;;;;;;;5073063;28;20819;-70
2023/01/05 13:35:56;;;;;;;66.77;4.70;;;;;;;;;;5057613;28;20463;-70
2023/01/05 13:38:44;;;;;;;66.73;5.07;;;;;;;;;;5072543;28;20435;-70
2023/01/05 13:41:20;;;;;;;68.70;5.00;;;;;;;;;;5047008;28;20487;-70
2023/01/05 13:43:59;;;;;;;69.00;4.93;;;;;;;;;;5072825;28;20603;-70
2023/01/05 13:46:38;;;;;;;67.17;4.67;;;;;;;;;;5072636;28;20451;-70
2023/01/05 13:49:19;;;;;;;63.00;4.70;;;;;;;;;;5071610;28;20960;-70
2023/01/05 13:51:51;;;;;;;69.37;5.23;;;;;;;;;;5072606;28;20471;-70
2023/01/05 13:54:19;;;;;;;71.00;4.80;;;;;;;;;;5072544;28;20452;-70
2023/01/05 13:56:47;;;;;;;67.57;6.10;;;;;;;;;;5072503;28;20452;-70
2023/01/05 13:59:21;;;;;;;64.73;4.20;;;;;;;;;;5071426;28;20940;-70
2023/01/05 14:01:49;;;;;;;68.70;4.27;;;;;;;;;;5072151;28;20503;-70
2023/01/05 14:04:19;;;;;;;65.57;4.57;;;;;;;;;;5072368;28;20451;-70
2023/01/05 14:06:48;;;;;;;70.03;4.80;;;;;;;;;;5072384;28;20817;-70
2023/01/05 14:09:17;;;;;;;68.53;5.13;;;;;;;;;;5070724;28;20831;-70
2023/01/05 14:11:59;;;;;;;64.37;4.67;;;;;;;;;;5072039;28;20585;-70
2023/01/05 14:14:27;;;;;;;62.47;4.70;;;;;;;;;;5071900;28;20479;-70
2023/01/05 14:16:56;;;;;;;72.10;5.00;;;;;;;;;;5072273;28;20447;-70
2023/01/05 14:19:24;;;;;;;64.83;4.90;;;;;;;;;;5071282;28;20479;-70
2023/01/05 14:22:05;;;;;;;63.17;4.60;;;;;;;;;;5072026;28;20879;-70
2023/01/05 14:24:35;;;;;;;68.83;5.30;;;;;;;;;;5071495;28;20447;-70
2023/01/05 14:27:07;;;;;;;62.40;4.83;;;;;;;;;;5072178;28;20458;-70
2023/01/05 14:30:08;;;;;;;71.20;5.60;;;;;;;;;;5071471;28;20534;-70
2023/01/05 14:32:36;;;;;;;64.47;4.10;;;;;;;;;;5071770;28;20463;-70
2023/01/05 14:35:08;;;;;;;64.70;4.60;;;;;;;;;;5071737;28;20443;-70
2023/01/05 14:37:37;;;;;;;64.90;4.87;;;;;;;;;;5071962;28;20500;-70
2023/01/05 14:40:16;;;;;;;70.10;4.30;;;;;;;;;;5071110;28;20517;-70
2023/01/05 14:42:47;;;;;;;66.90;4.63;;;;;;;;;;5071667;28;20470;-70
2023/01/05 14:45:21;;;;;;;62.40;4.30;;;;;;;;;;5071825;28;20455;-70
2023/01/05 14:47:49;;;;;;;61.93;4.90;;;;;;;;;;5072112;28;20455;-70
2023/01/05 14:50:34;;;;;;;64.13;4.80;;;;;;;;;;5071182;28;20450;-70
2023/01/05 14:53:02;;;;;;;67.93;5.10;;;;;;;;;;5071714;28;20620;-70
2023/01/05 14:55:32;;;;;;;70.37;5.90;;;;;;;;;;5071628;28;20454;-70
2023/01/05 14:57:59;;;;;;;63.20;4.63;;;;;;;;;;5071399;28;20443;-70
2023/01/05 15:00:38;;;;;;;69.07;5.40;;;;;;;;;;5071039;28;20487;-70
2023/01/05 15:03:11;;;;;;;63.77;5.17;;;;;;;;;;5071733;28;20479;-70
2023/01/05 15:05:41;;;;;;;71.53;4.40;;;;;;;;;;5071820;28;20454;-70
2023/01/05 15:08:15;;;;;;;67.80;4.80;;;;;;;;;;5071477;28;20824;-70
2023/01/05 15:10:56;;;;;;;70.63;6.27;;;;;;;;;;5071079;28;20438;-70
2023/01/05 15:13:34;;;;;;;66.63;4.40;;;;;;;;;;5071500;28;20476;-70
2023/01/05 15:16:04;;;;;;;66.00;4.93;;;;;;;;;;5071949;28;20465;-70
2023/01/05 15:18:47;;;;;;;63.00;4.03;;;;;;;;;;5071217;28;20447;-70
2023/01/05 15:21:23;;;;;;;66.10;5.63;;;;;;;;;;5074927;28;20621;-70
2023/01/05 15:24:03;;;;;;;64.73;5.30;;;;;;;;;;5075704;28;20451;-70